Time;durP1;ratioP1;P1;durP2;ratioP2;P2;SDS_P1;SDS_P2;PMS_P1;PMS_P2;Temp;Humidity;BMP_temperature;BMP_pressure;BME280_temperature;BME280_humidity;BME280_pressure;Samples;Min_cycle;Max_cycle;Signal;HPM_P1;HPM_P2
2024/04/04 00:02:03;;;;;;;9.75;0.22;;;9.60;99.90;;;;;;5092242;28;20012;-76
2024/04/04 00:04:29;;;;;;;11.88;0.40;;;9.50;99.90;;;;;;5092650;28;20368;-76
2024/04/04 00:06:54;;;;;;;7.03;0.43;;;9.50;99.90;;;;;;5092295;28;20122;-76
2024/04/04 00:09:20;;;;;;;6.80;0.45;;;9.50;99.90;;;;;;5094373;28;20020;-76
2024/04/04 00:11:46;;;;;;;9.70;0.40;;;9.40;99.90;;;;;;5092620;28;20091;-76
2024/04/04 00:14:11;;;;;;;9.65;1.00;;;9.40;99.90;;;;;;5106343;28;20027;-77
2024/04/04 00:16:41;;;;;;;5.40;0.30;;;9.30;99.90;;;;;;5113593;28;20028;-77
2024/04/04 00:19:06;;;;;;;5.63;0.40;;;9.30;99.90;;;;;;5100058;28;20020;-77
2024/04/04 00:21:32;;;;;;;7.10;0.30;;;9.20;99.90;;;;;;5093403;28;20475;-76
2024/04/04 00:23:58;;;;;;;9.43;0.90;;;9.20;99.90;;;;;;5093517;28;20432;-76
2024/04/04 00:26:24;;;;;;;7.10;0.57;;;9.20;99.90;;;;;;5092864;28;20110;-76
2024/04/04 00:28:50;;;;;;;13.70;0.38;;;9.20;99.90;;;;;;5092568;28;20157;-76
2024/04/04 00:31:15;;;;;;;10.43;0.68;;;9.10;99.90;;;;;;5092538;28;20050;-76
2024/04/04 00:33:41;;;;;;;7.30;0.20;;;9.10;99.90;;;;;;5094268;28;20031;-77
2024/04/04 00:36:07;;;;;;;5.22;0.40;;;9.10;99.90;;;;;;5093668;28;20018;-77
2024/04/04 00:38:34;;;;;;;6.50;0.00;;;9.00;99.90;;;;;;5093077;28;20016;-76
2024/04/04 00:41:00;;;;;;;5.63;0.28;;;9.00;99.90;;;;;;5092463;28;20479;-76
2024/04/04 00:43:26;;;;;;;12.35;0.20;;;9.00;99.90;;;;;;5093734;28;20069;-76
2024/04/04 00:45:52;;;;;;;8.23;0.50;;;8.90;99.90;;;;;;5093969;28;20077;-77
2024/04/04 00:48:17;;;;;;;13.13;0.50;;;9.00;99.90;;;;;;5095381;28;20052;-76
2024/04/04 00:50:43;;;;;;;9.00;0.73;;;9.00;99.90;;;;;;5094013;28;20479;-77
2024/04/04 00:53:09;;;;;;;7.88;0.65;;;9.20;99.90;;;;;;5091720;28;20562;-76
2024/04/04 00:55:35;;;;;;;4.95;0.15;;;8.90;99.90;;;;;;5092448;28;20411;-77
2024/04/04 00:58:01;;;;;;;4.93;0.00;;;8.80;99.90;;;;;;5093753;28;20043;-77
2024/04/04 01:00:27;;;;;;;4.85;0.30;;;8.90;99.90;;;;;;5091457;28;20107;-77
2024/04/04 01:02:53;;;;;;;8.75;0.47;;;8.80;99.90;;;;;;5091652;28;20043;-77
2024/04/04 01:05:19;;;;;;;6.80;1.08;;;8.80;99.90;;;;;;5093763;28;20171;-76
2024/04/04 01:07:48;;;;;;;5.75;0.47;;;8.90;99.90;;;;;;5093531;28;20317;-77
2024/04/04 01:10:15;;;;;;;5.63;0.00;;;8.90;99.90;;;;;;5091854;28;20513;-77
2024/04/04 01:12:41;;;;;;;5.55;0.10;;;9.70;99.90;;;;;;5093913;28;20032;-77
2024/04/04 01:15:07;;;;;;;5.57;0.05;;;9.20;99.90;;;;;;5092505;28;20069;-76
2024/04/04 01:17:34;;;;;;;8.43;0.47;;;9.00;99.90;;;;;;5091995;28;20016;-76
2024/04/04 01:20:00;;;;;;;4.20;0.00;;;9.10;99.90;;;;;;5092330;28;20112;-76
2024/04/04 01:22:26;;;;;;;3.35;0.98;;;9.20;99.90;;;;;;5094023;28;20443;-77
2024/04/04 01:24:51;;;;;;;5.72;0.10;;;9.20;99.90;;;;;;5092204;28;20016;-76
2024/04/04 01:27:17;;;;;;;4.32;0.00;;;9.20;99.90;;;;;;5094279;28;20028;-76
2024/04/04 01:29:43;;;;;;;3.53;0.13;;;9.20;99.90;;;;;;5093787;28;20446;-76
2024/04/04 01:32:08;;;;;;;5.28;0.47;;;9.20;99.90;;;;;;5092993;28;20055;-76
2024/04/04 01:34:34;;;;;;;4.10;0.40;;;9.20;99.90;;;;;;5092414;28;20052;-77
2024/04/04 01:37:00;;;;;;;9.20;0.25;;;9.20;99.90;;;;;;5097057;28;20017;-76
2024/04/04 01:39:26;;;;;;;2.35;0.35;;;9.20;99.90;;;;;;5097066;28;20024;-76
2024/04/04 01:41:54;;;;;;;5.85;0.50;;;9.20;99.90;;;;;;5095988;28;20391;-76
2024/04/04 01:44:22;;;;;;;4.18;0.03;;;9.20;99.90;;;;;;5097845;28;20024;-76
2024/04/04 01:46:49;;;;;;;4.30;0.75;;;10.60;99.90;;;;;;5097922;28;20134;-77
2024/04/04 01:49:16;;;;;;;5.13;0.38;;;9.20;99.90;;;;;;5096114;28;20020;-77
2024/04/04 01:51:43;;;;;;;5.45;0.05;;;9.20;99.90;;;;;;5097351;28;20024;-77
2024/04/04 01:54:10;;;;;;;4.40;0.52;;;9.20;99.90;;;;;;5096244;28;20123;-77
2024/04/04 01:56:37;;;;;;;5.57;0.17;;;9.20;99.90;;;;;;5097820;28;20077;-76
2024/04/04 01:59:02;;;;;;;2.03;0.10;;;9.10;99.90;;;;;;5097042;28;20059;-76
2024/04/04 02:01:28;;;;;;;6.28;0.52;;;9.10;99.90;;;;;;5096117;28;20428;-76
2024/04/04 02:03:53;;;;;;;8.13;0.75;;;9.10;99.90;;;;;;5096252;28;20055;-77
2024/04/04 02:06:19;;;;;;;8.48;0.30;;;9.80;99.90;;;;;;5096088;28;20020;-76
2024/04/04 02:08:44;;;;;;;4.05;0.98;;;9.10;99.90;;;;;;5097533;28;20113;-76
2024/04/04 02:11:10;;;;;;;8.85;0.65;;;9.90;99.90;;;;;;5095977;28;20028;-77
2024/04/04 02:13:36;;;;;;;3.38;0.05;;;9.10;99.90;;;;;;5097133;28;20040;-77
2024/04/04 02:16:02;;;;;;;2.88;0.40;;;10.10;99.90;;;;;;5097879;28;20390;-78
2024/04/04 02:18:28;;;;;;;5.90;1.13;;;9.10;99.90;;;;;;5095390;28;20574;-76
2024/04/04 02:20:54;;;;;;;5.50;0.20;;;9.10;99.90;;;;;;5115726;28;20110;-76
2024/04/04 02:23:19;;;;;;;6.50;0.40;;;9.20;99.90;;;;;;5116676;28;20026;-77
2024/04/04 02:25:45;;;;;;;6.43;0.40;;;9.70;99.90;;;;;;5116818;28;20035;-76
2024/04/04 02:28:10;;;;;;;10.73;0.52;;;9.60;99.90;;;;;;5116657;28;20016;-77
2024/04/04 02:30:39;;;;;;;5.75;0.32;;;9.90;99.90;;;;;;5117562;28;20490;-77
2024/04/04 02:33:06;;;;;;;9.27;0.63;;;9.10;99.90;;;;;;5115039;28;20063;-77
2024/04/04 02:35:32;;;;;;;7.00;1.38;;;9.20;99.90;;;;;;5099156;28;20016;-77
2024/04/04 02:37:58;;;;;;;9.82;0.98;;;;;;;;;;5095460;28;20020;-76
2024/04/04 02:40:24;;;;;;;7.88;0.10;;;9.20;99.90;;;;;;5096238;28;20031;-77
2024/04/04 02:42:49;;;;;;;4.45;0.60;;;9.20;99.90;;;;;;5096151;28;20467;-77
2024/04/04 02:45:16;;;;;;;7.22;1.00;;;9.20;99.90;;;;;;5096634;28;20032;-76
2024/04/04 02:47:41;;;;;;;8.50;0.98;;;9.10;99.90;;;;;;5095019;28;20032;-77
2024/04/04 02:50:08;;;;;;;3.97;0.10;;;9.10;99.90;;;;;;5095991;28;20039;-77
2024/04/04 02:52:35;;;;;;;5.57;0.10;;;9.10;99.90;;;;;;5095425;28;20027;-77
2024/04/04 02:55:01;;;;;;;6.55;0.45;;;9.20;99.90;;;;;;5093576;28;20024;-76
2024/04/04 02:57:27;;;;;;;10.35;0.65;;;9.20;99.90;;;;;;5094863;28;20029;-76
2024/04/04 02:59:53;;;;;;;6.47;0.38;;;9.20;99.90;;;;;;5094904;28;20027;-76
2024/04/04 03:02:18;;;;;;;3.70;0.20;;;9.20;99.90;;;;;;5095092;28;20558;-76
2024/04/04 03:04:44;;;;;;;6.72;0.73;;;9.20;99.90;;;;;;5093445;28;20371;-77
2024/04/04 03:07:09;;;;;;;7.20;0.57;;;10.10;99.90;;;;;;5094907;28;20321;-77
2024/04/04 03:09:35;;;;;;;5.00;0.65;;;9.20;99.90;;;;;;5096722;28;20180;-77
2024/04/04 03:12:01;;;;;;;6.05;1.00;;;9.30;99.90;;;;;;5096742;28;20020;-77
2024/04/04 03:14:26;;;;;;;5.25;0.20;;;9.20;99.90;;;;;;5095796;28;20031;-77
2024/04/04 03:16:52;;;;;;;8.38;0.17;;;9.30;99.90;;;;;;5094292;28;20027;-76
2024/04/04 03:19:18;;;;;;;7.82;0.20;;;9.30;99.90;;;;;;5093818;28;20056;-76
2024/04/04 03:21:44;;;;;;;6.75;0.60;;;9.30;99.90;;;;;;5092390;28;20055;-76
2024/04/04 03:24:09;;;;;;;7.32;0.50;;;9.30;99.90;;;;;;5093336;28;20054;-77
2024/04/04 03:26:35;;;;;;;4.40;0.10;;;9.30;99.90;;;;;;5093192;28;20035;-76
2024/04/04 03:29:01;;;;;;;4.85;0.65;;;9.30;99.90;;;;;;5094209;28;20028;-76
2024/04/04 03:31:27;;;;;;;2.63;0.10;;;9.30;99.90;;;;;;5093427;28;20028;-76
2024/04/04 03:33:53;;;;;;;3.83;0.10;;;9.20;99.90;;;;;;5094857;28;20063;-75
2024/04/04 03:36:19;;;;;;;8.35;1.45;;;9.30;99.90;;;;;;5094774;28;20074;-76
2024/04/04 03:38:44;;;;;;;4.50;0.30;;;9.30;99.90;;;;;;5094254;28;20032;-76
2024/04/04 03:41:10;;;;;;;7.95;0.20;;;9.20;99.90;;;;;;5094145;28;20097;-76
2024/04/04 03:43:36;;;;;;;3.45;0.00;;;9.30;99.90;;;;;;5093852;28;20033;-77
2024/04/04 03:46:05;;;;;;;3.13;0.20;;;9.70;99.90;;;;;;5093969;28;20032;-77
2024/04/04 03:48:31;;;;;;;9.02;0.35;;;9.30;99.90;;;;;;5092717;28;20024;-76
2024/04/04 03:50:56;;;;;;;2.45;0.10;;;9.30;99.90;;;;;;5093923;28;20034;-76
2024/04/04 03:53:22;;;;;;;4.93;0.52;;;10.10;99.90;;;;;;5093904;28;20393;-76
2024/04/04 03:55:48;;;;;;;2.33;0.00;;;9.30;99.90;;;;;;5094569;28;20027;-76
2024/04/04 03:58:15;;;;;;;2.95;0.30;;;9.30;99.90;;;;;;5092341;28;20024;-77
2024/04/04 04:00:41;;;;;;;7.30;0.20;;;9.30;99.90;;;;;;5093934;28;20027;-76
2024/04/04 04:03:06;;;;;;;1.45;0.10;;;9.30;99.90;;;;;;5093164;28;20426;-76
2024/04/04 04:05:32;;;;;;;7.22;0.47;;;;;;;;;;5094314;28;20020;-76
2024/04/04 04:07:58;;;;;;;2.45;0.63;;;9.30;99.90;;;;;;5093096;28;20027;-77
2024/04/04 04:10:27;;;;;;;1.08;0.03;;;9.40;99.90;;;;;;5092931;28;20494;-76
2024/04/04 04:12:54;;;;;;;4.07;0.68;;;9.40;99.90;;;;;;5092318;28;20058;-76
2024/04/04 04:15:20;;;;;;;4.07;0.80;;;9.90;99.90;;;;;;5093508;28;20016;-76
2024/04/04 04:17:46;;;;;;;5.43;0.77;;;9.40;99.90;;;;;;5092359;28;20433;-76
2024/04/04 04:22:56;;;;;;;2.08;0.30;;;9.40;99.90;;;;;;5093515;28;20077;-76
2024/04/04 04:25:22;;;;;;;4.20;0.20;;;9.50;99.90;;;;;;5093712;28;20028;-76
2024/04/04 04:27:48;;;;;;;3.58;0.22;;;9.40;99.90;;;;;;5091895;28;20027;-76
2024/04/04 04:30:14;;;;;;;3.65;0.57;;;9.50;99.90;;;;;;5092189;28;20020;-76
2024/04/04 04:32:40;;;;;;;2.20;0.20;;;9.40;99.90;;;;;;5091855;28;20028;-77
2024/04/04 04:35:06;;;;;;;2.28;0.50;;;9.50;99.90;;;;;;5093209;28;20035;-77
2024/04/04 04:37:33;;;;;;;1.83;0.30;;;9.40;99.90;;;;;;5093075;28;20605;-76
2024/04/04 04:39:59;;;;;;;2.55;0.55;;;9.70;99.90;;;;;;5093181;28;20043;-76
2024/04/04 04:42:25;;;;;;;1.80;0.50;;;9.50;99.90;;;;;;5093084;28;20024;-76
2024/04/04 04:44:50;;;;;;;4.45;1.20;;;9.60;99.90;;;;;;5092059;28;20032;-76
2024/04/04 04:47:16;;;;;;;5.35;1.17;;;9.50;99.90;;;;;;5093564;28;20405;-76
2024/04/04 04:49:41;;;;;;;2.35;0.75;;;9.50;99.90;;;;;;5092897;28;20050;-76
2024/04/04 04:52:07;;;;;;;2.35;1.02;;;9.60;99.90;;;;;;5093029;28;20024;-76
2024/04/04 04:54:33;;;;;;;1.98;1.05;;;9.60;99.90;;;;;;5092992;28;20475;-76
2024/04/04 04:56:59;;;;;;;6.07;1.10;;;9.60;99.90;;;;;;5092157;28;20016;-77
2024/04/04 04:59:25;;;;;;;2.20;1.00;;;9.60;99.90;;;;;;5091519;28;20031;-76
2024/04/04 05:01:51;;;;;;;2.72;1.02;;;9.70;99.90;;;;;;5092877;28;20020;-76
2024/04/04 05:04:16;;;;;;;1.85;0.82;;;9.70;99.90;;;;;;5092823;28;20478;-76
2024/04/04 05:06:46;;;;;;;4.07;1.40;;;9.70;99.90;;;;;;5091690;28;20046;-76
2024/04/04 05:09:12;;;;;;;5.15;0.82;;;10.80;99.90;;;;;;5092931;28;20530;-78
2024/04/04 05:11:38;;;;;;;3.22;1.40;;;9.70;99.90;;;;;;5094477;28;20028;-78
2024/04/04 05:14:03;;;;;;;5.18;1.40;;;9.70;99.90;;;;;;5093938;28;20380;-77
2024/04/04 05:16:29;;;;;;;3.45;1.10;;;9.80;99.90;;;;;;5092314;28;20020;-77
2024/04/04 05:18:55;;;;;;;3.38;1.48;;;9.70;99.90;;;;;;5092982;28;20016;-78
2024/04/04 05:21:20;;;;;;;3.88;0.90;;;9.70;99.90;;;;;;5095380;28;20099;-77
2024/04/04 05:23:46;;;;;;;2.13;0.90;;;9.70;99.90;;;;;;5094470;28;20079;-78
2024/04/04 05:26:12;;;;;;;7.43;1.17;;;9.80;99.90;;;;;;5093551;28;20034;-78
2024/04/04 05:28:38;;;;;;;2.33;0.77;;;9.80;99.90;;;;;;5092805;28;20479;-76
2024/04/04 05:31:04;;;;;;;1.67;1.23;;;9.80;99.90;;;;;;5093245;28;20020;-76
2024/04/04 05:33:30;;;;;;;0.45;0.40;;;9.90;99.90;;;;;;5093354;28;20111;-76
2024/04/04 05:35:56;;;;;;;1.63;0.82;;;10.00;99.90;;;;;;5092424;28;20116;-77
2024/04/04 05:38:22;;;;;;;2.67;0.55;;;10.00;99.90;;;;;;5092050;28;20020;-77
2024/04/04 05:40:48;;;;;;;3.35;1.10;;;10.00;99.90;;;;;;5093486;28;20039;-77
2024/04/04 05:43:14;;;;;;;3.88;1.15;;;10.00;99.90;;;;;;5093365;28;20016;-77
2024/04/04 05:45:39;;;;;;;3.05;1.10;;;10.10;99.90;;;;;;5094682;28;20568;-78
2024/04/04 05:48:05;;;;;;;1.33;0.77;;;10.00;99.90;;;;;;5093509;28;20051;-78
2024/04/04 05:50:34;;;;;;;2.92;1.00;;;10.00;99.90;;;;;;5094742;28;20398;-77
2024/04/04 05:53:03;;;;;;;4.30;1.10;;;10.00;99.90;;;;;;5095744;28;20383;-78
2024/04/04 05:55:29;;;;;;;2.40;1.13;;;10.00;99.90;;;;;;5094173;28;20020;-77
2024/04/04 05:57:55;;;;;;;1.05;0.55;;;10.00;99.90;;;;;;5095673;28;20046;-77
2024/04/04 06:00:21;;;;;;;2.63;0.63;;;10.10;99.90;;;;;;5098380;28;20027;-79
2024/04/04 06:02:48;;;;;;;2.28;1.20;;;10.10;99.90;;;;;;5095282;28;20020;-78
2024/04/04 06:05:14;;;;;;;3.80;0.98;;;10.10;99.90;;;;;;5094983;28;20020;-77
2024/04/04 06:07:40;;;;;;;7.68;1.13;;;10.10;99.90;;;;;;5093140;28;20024;-75
2024/04/04 06:10:06;;;;;;;1.17;0.50;;;10.20;99.90;;;;;;5093414;28;20051;-76
2024/04/04 06:12:31;;;;;;;4.43;0.65;;;10.30;99.90;;;;;;5092641;28;20024;-76
2024/04/04 06:14:57;;;;;;;2.53;0.60;;;10.20;99.90;;;;;;5093183;28;20543;-75
2024/04/04 06:17:23;;;;;;;3.80;0.82;;;10.30;99.90;;;;;;5092640;28;20026;-76
2024/04/04 06:19:49;;;;;;;1.73;0.77;;;10.30;99.90;;;;;;5091887;28;20016;-75
2024/04/04 06:22:14;;;;;;;3.38;1.02;;;10.40;99.90;;;;;;5094096;28;20435;-76
2024/04/04 06:24:40;;;;;;;1.48;0.70;;;10.40;99.90;;;;;;5095416;28;20032;-76
2024/04/04 06:27:06;;;;;;;2.08;0.32;;;10.50;99.90;;;;;;5096633;28;20063;-76
2024/04/04 06:29:32;;;;;;;2.58;0.38;;;;;;;;;;5097022;28;20028;-78
2024/04/04 06:31:59;;;;;;;5.53;0.55;;;10.50;99.90;;;;;;5097135;28;20036;-75
2024/04/04 06:34:25;;;;;;;4.35;0.95;;;10.60;99.90;;;;;;5096302;28;20429;-76
2024/04/04 06:36:51;;;;;;;2.97;0.52;;;10.60;99.90;;;;;;5096277;28;20024;-76
2024/04/04 06:39:16;;;;;;;4.10;0.73;;;10.70;99.90;;;;;;5095025;28;20119;-76
2024/04/04 06:41:45;;;;;;;1.73;0.35;;;10.60;99.90;;;;;;5096363;28;20133;-75
2024/04/04 06:44:11;;;;;;;;;;;10.70;99.90;;;;;;5095355;28;20020;-76
2024/04/04 06:46:36;;;;;;;2.67;0.35;;;10.70;99.90;;;;;;5095021;28;20381;-76
2024/04/04 06:49:03;;;;;;;2.45;0.95;;;;;;;;;;5096888;28;20028;-76
2024/04/04 06:51:28;;;;;;;0.70;0.20;;;10.80;99.90;;;;;;5096070;28;20028;-75
2024/04/04 06:53:54;;;;;;;1.27;0.25;;;10.80;99.90;;;;;;5094653;28;20472;-76
2024/04/04 06:56:19;;;;;;;1.25;0.10;;;10.90;99.90;;;;;;5094671;28;20024;-76
2024/04/04 06:58:45;;;;;;;0.98;0.20;;;10.90;99.90;;;;;;5095191;28;20024;-77
2024/04/04 07:01:11;;;;;;;3.15;0.35;;;10.90;99.90;;;;;;5097103;28;20020;-78
2024/04/04 07:03:37;;;;;;;2.55;0.40;;;;;;;;;;5097315;28;20028;-77
2024/04/04 07:06:02;;;;;;;3.45;0.30;;;11.00;99.90;;;;;;5097412;28;20023;-78
2024/04/04 07:08:28;;;;;;;3.10;0.93;;;11.10;99.90;;;;;;5097279;28;20504;-77
2024/04/04 07:11:05;;;;;;;0.82;0.47;;;11.20;99.90;;;;;;5096469;28;20020;-78
2024/04/04 07:13:36;;;;;;;2.92;0.10;;;;;;;;;;5099421;28;20024;-77
2024/04/04 07:16:12;;;;;;;1.15;0.20;;;11.20;99.90;;;;;;5097665;28;20024;-77
2024/04/04 07:18:38;;;;;;;6.28;0.73;;;11.20;99.90;;;;;;5098130;28;20024;-78
2024/04/04 07:21:06;;;;;;;3.90;0.32;;;11.20;99.90;;;;;;5095905;28;20024;-78
2024/04/04 07:23:35;;;;;;;1.77;0.50;;;11.30;99.90;;;;;;5097669;28;20103;-77
2024/04/04 07:26:01;;;;;;;4.10;0.98;;;11.30;99.90;;;;;;5096333;28;20011;-77
2024/04/04 07:28:27;;;;;;;1.23;0.38;;;11.10;99.90;;;;;;5097093;28;20394;-77
2024/04/04 07:30:53;;;;;;;1.23;0.30;;;11.30;99.90;;;;;;5098075;28;20398;-78
2024/04/04 07:33:18;;;;;;;5.60;0.40;;;11.40;99.90;;;;;;5096711;28;20095;-77
2024/04/04 07:35:44;;;;;;;4.65;0.52;;;11.40;99.90;;;;;;5095980;28;20028;-77
2024/04/04 07:38:11;;;;;;;3.72;0.32;;;11.40;99.90;;;;;;5095869;28;20099;-77
2024/04/04 07:40:38;;;;;;;6.15;0.52;;;11.40;99.90;;;;;;5096966;28;20104;-77
2024/04/04 07:43:06;;;;;;;2.53;0.10;;;11.40;99.90;;;;;;5096857;28;20048;-77
2024/04/04 07:45:35;;;;;;;1.15;0.00;;;11.40;99.90;;;;;;5096304;28;20097;-77
2024/04/04 07:48:01;;;;;;;3.47;0.10;;;11.40;99.90;;;;;;5096354;28;20024;-77
2024/04/04 07:50:27;;;;;;;3.92;0.85;;;11.40;99.90;;;;;;5095837;28;20050;-78
2024/04/04 07:52:53;;;;;;;4.50;0.20;;;11.40;99.90;;;;;;5096299;28;20024;-77
2024/04/04 07:55:19;;;;;;;4.65;0.13;;;11.40;99.90;;;;;;5095256;28;20024;-75
2024/04/04 07:57:44;;;;;;;3.03;0.00;;;11.50;99.90;;;;;;5095955;28;20023;-76
2024/04/04 08:00:13;;;;;;;2.45;0.10;;;11.50;99.90;;;;;;5093456;28;20031;-75
2024/04/04 08:02:40;;;;;;;2.58;0.30;;;11.50;99.90;;;;;;5095265;28;20040;-75
2024/04/04 08:05:06;;;;;;;7.10;1.10;;;;;;;;;;5093852;28;20051;-77
2024/04/04 08:07:36;;;;;;;10.77;0.63;;;11.60;99.90;;;;;;5095638;28;20032;-77
2024/04/04 08:10:14;;;;;;;2.55;0.28;;;11.60;99.90;;;;;;5094070;28;20036;-76
2024/04/04 08:12:39;;;;;;;5.70;0.40;;;11.70;99.90;;;;;;5094984;28;20047;-77
2024/04/04 08:15:12;;;;;;;6.15;0.35;;;11.70;99.90;;;;;;5095334;28;20080;-77
2024/04/04 08:17:46;;;;;;;10.43;1.13;;;11.80;99.90;;;;;;5095591;28;20030;-77
2024/04/04 08:20:15;;;;;;;8.57;1.25;;;11.80;99.90;;;;;;5094118;28;20062;-76
2024/04/04 08:22:42;;;;;;;6.15;0.20;;;11.90;99.90;;;;;;5095115;28;20028;-77
2024/04/04 08:25:08;;;;;;;3.90;0.22;;;11.90;99.90;;;;;;5096721;28;20016;-75
2024/04/04 08:27:34;;;;;;;5.47;0.63;;;12.00;99.90;;;;;;5095967;28;20536;-77
2024/04/04 08:30:00;;;;;;;3.00;0.38;;;12.00;99.90;;;;;;5095391;28;20032;-77
2024/04/04 08:32:26;;;;;;;1.65;0.20;;;12.00;99.90;;;;;;5096203;28;20398;-77
2024/04/04 08:34:52;;;;;;;4.75;0.75;;;12.10;99.90;;;;;;5094783;28;20035;-76
2024/04/04 08:37:18;;;;;;;3.35;0.10;;;12.10;99.90;;;;;;5095459;28;20465;-77
2024/04/04 08:39:43;;;;;;;2.10;0.50;;;12.20;99.90;;;;;;5093466;28;20391;-78
2024/04/04 08:42:09;;;;;;;5.10;0.52;;;12.20;99.90;;;;;;5095823;28;20455;-77
2024/04/04 08:44:35;;;;;;;3.17;0.50;;;12.20;99.90;;;;;;5092819;28;20390;-75
2024/04/04 08:47:00;;;;;;;5.45;0.57;;;12.20;99.90;;;;;;5093454;28;20028;-77
2024/04/04 08:49:27;;;;;;;5.97;0.45;;;12.10;99.90;;;;;;5093440;28;20068;-78
2024/04/04 08:51:53;;;;;;;3.38;0.08;;;12.10;99.90;;;;;;5094981;28;20032;-78
2024/04/04 08:54:21;;;;;;;2.22;0.38;;;12.20;99.90;;;;;;5093218;28;20028;-77
2024/04/04 08:56:47;;;;;;;2.13;0.10;;;12.20;99.90;;;;;;5095073;28;20020;-76
2024/04/04 08:59:13;;;;;;;2.53;0.00;;;12.40;99.90;;;;;;5095559;28;20086;-77
2024/04/04 09:01:39;;;;;;;1.63;0.00;;;12.40;99.90;;;;;;5095251;28;20024;-77
2024/04/04 09:04:05;;;;;;;1.33;0.15;;;12.40;99.90;;;;;;5094493;28;20031;-78
2024/04/04 09:06:31;;;;;;;2.85;0.22;;;12.40;99.90;;;;;;5094422;28;20032;-77
2024/04/04 09:09:00;;;;;;;3.80;0.00;;;12.30;99.90;;;;;;5095241;28;20032;-78
2024/04/04 09:11:30;;;;;;;;;;;12.30;99.90;;;;;;5094772;28;20024;-78
2024/04/04 09:14:15;;;;;;;2.67;0.32;;;12.20;99.90;;;;;;5094310;28;19939;-77
2024/04/04 09:16:42;;;;;;;0.85;0.03;;;12.10;99.90;;;;;;5094055;28;20020;-78
2024/04/04 09:19:15;;;;;;;0.98;0.00;;;12.00;99.90;;;;;;5093818;28;20027;-78
2024/04/04 09:21:44;;;;;;;1.10;0.00;;;11.90;99.90;;;;;;5094877;28;20035;-78
2024/04/04 09:24:12;;;;;;;1.45;0.00;;;11.70;99.90;;;;;;5093184;28;20395;-78
2024/04/04 09:26:38;;;;;;;0.70;0.00;;;11.60;99.90;;;;;;5093707;28;20024;-78
2024/04/04 09:29:05;;;;;;;1.10;0.10;;;11.60;99.90;;;;;;5094789;28;20034;-78
2024/04/04 09:31:39;;;;;;;1.85;0.00;;;11.60;99.90;;;;;;5093454;28;20032;-78
2024/04/04 09:34:05;;;;;;;1.30;0.20;;;11.60;99.90;;;;;;5093374;28;20024;-77
2024/04/04 09:36:36;;;;;;;3.53;0.00;;;11.60;99.90;;;;;;5095105;28;20016;-78
2024/04/04 09:39:03;;;;;;;6.03;0.00;;;11.60;99.90;;;;;;5094238;28;20109;-78
2024/04/04 09:41:30;;;;;;;6.88;1.08;;;11.60;99.90;;;;;;5094519;28;20600;-79
2024/04/04 09:43:57;;;;;;;3.97;0.08;;;11.80;99.90;;;;;;5093506;28;20028;-76
2024/04/04 09:46:25;;;;;;;4.18;0.08;;;12.20;99.90;;;;;;5093506;28;20082;-78
2024/04/04 09:48:53;;;;;;;5.68;1.17;;;12.20;99.90;;;;;;5095097;28;20020;-78
2024/04/04 09:51:20;;;;;;;4.72;0.10;;;12.50;99.90;;;;;;5095654;28;20028;-78
2024/04/04 09:53:49;;;;;;;1.48;0.00;;;12.80;99.90;;;;;;5093771;28;20035;-78
2024/04/04 09:56:19;;;;;;;2.53;0.00;;;12.90;99.90;;;;;;5095648;28;20077;-78
2024/04/04 09:58:45;;;;;;;5.00;0.40;;;12.80;99.90;;;;;;5097843;28;20113;-77
2024/04/04 10:01:21;;;;;;;1.52;0.10;;;12.90;99.90;;;;;;5098554;28;20012;-78
2024/04/04 10:03:59;;;;;;;7.68;0.15;;;12.90;99.90;;;;;;5097537;28;20107;-78
2024/04/04 10:06:45;;;;;;;6.00;0.10;;;12.90;99.90;;;;;;5098399;28;20093;-78
2024/04/04 10:09:23;;;;;;;4.28;0.00;;;13.00;99.90;;;;;;5099859;28;20024;-76
2024/04/04 10:11:53;;;;;;;4.75;0.45;;;13.00;99.90;;;;;;5097255;28;20368;-76
2024/04/04 10:14:20;;;;;;;3.70;0.00;;;13.20;99.90;;;;;;5096501;28;20020;-76
2024/04/04 10:16:50;;;;;;;4.25;0.00;;;13.30;99.90;;;;;;5097875;28;20051;-76
2024/04/04 10:19:18;;;;;;;2.92;0.00;;;13.40;99.90;;;;;;5096930;28;20042;-76
2024/04/04 10:21:45;;;;;;;2.45;0.00;;;13.70;99.90;;;;;;5099710;28;20026;-78
2024/04/04 10:24:20;;;;;;;3.78;0.00;;;13.90;99.90;;;;;;5096546;28;20024;-76
2024/04/04 10:26:57;;;;;;;1.90;0.30;;;14.10;99.90;;;;;;5098031;28;20069;-76
2024/04/04 10:29:35;;;;;;;1.83;0.00;;;14.40;99.90;;;;;;5097462;28;20052;-76
2024/04/04 10:32:02;;;;;;;4.50;0.10;;;14.50;99.90;;;;;;5097802;28;20131;-78
2024/04/04 10:34:28;;;;;;;3.22;0.10;;;14.50;99.90;;;;;;5095632;28;20038;-76
2024/04/04 10:36:54;;;;;;;1.52;0.10;;;14.50;99.90;;;;;;5097126;28;20527;-77
2024/04/04 10:39:23;;;;;;;3.15;0.30;;;;;;;;;;5097540;28;20048;-77
2024/04/04 10:41:50;;;;;;;2.63;0.52;;;14.70;99.90;;;;;;5098353;28;20020;-79
2024/04/04 10:44:18;;;;;;;4.82;0.00;;;14.60;99.90;;;;;;5097081;28;20028;-77
2024/04/04 10:46:49;;;;;;;4.47;0.00;;;14.60;99.90;;;;;;5098019;28;20035;-77
2024/04/04 10:49:17;;;;;;;4.00;0.40;;;14.80;99.90;;;;;;5097604;28;20134;-75
2024/04/04 10:51:59;;;;;;;1.10;0.00;;;14.90;99.90;;;;;;5097733;28;20028;-78
2024/04/04 10:54:25;;;;;;;2.85;0.00;;;15.00;99.90;;;;;;5096042;28;20020;-77
2024/04/04 10:56:51;;;;;;;2.45;0.00;;;15.30;99.90;;;;;;5097224;28;20150;-77
2024/04/04 10:59:20;;;;;;;3.35;0.28;;;15.50;99.90;;;;;;5095856;28;20024;-77
2024/04/04 11:01:47;;;;;;;3.38;0.43;;;15.60;99.90;;;;;;5097844;28;20505;-78
2024/04/04 11:04:14;;;;;;;3.40;0.52;;;15.80;99.90;;;;;;5097830;28;20107;-77
2024/04/04 11:06:41;;;;;;;16.30;0.57;;;15.80;99.90;;;;;;5097358;28;20483;-77
2024/04/04 11:09:16;;;;;;;6.30;0.25;;;15.70;99.90;;;;;;5096956;28;20437;-78
2024/04/04 11:11:47;;;;;;;5.13;0.57;;;15.90;99.90;;;;;;5095539;28;20074;-78
2024/04/04 11:14:13;;;;;;;3.85;0.00;;;15.90;99.90;;;;;;5096491;28;20032;-78
2024/04/04 11:16:40;;;;;;;10.40;0.00;;;16.20;99.90;;;;;;5096556;28;20369;-78
2024/04/04 11:19:10;;;;;;;3.67;0.25;;;16.20;99.90;;;;;;5095703;28;20052;-78
2024/04/04 11:21:36;;;;;;;4.53;0.52;;;16.10;99.90;;;;;;5096022;28;20028;-77
2024/04/04 11:24:02;;;;;;;6.90;0.45;;;16.10;99.90;;;;;;5095843;28;20388;-75
2024/04/04 11:26:28;;;;;;;3.15;0.00;;;15.80;99.90;;;;;;5097179;28;20132;-78
2024/04/04 11:28:54;;;;;;;5.28;0.17;;;15.70;99.90;;;;;;5098718;28;20501;-78
2024/04/04 11:31:19;;;;;;;5.57;0.38;;;15.70;99.90;;;;;;5098796;28;20028;-76
2024/04/04 11:33:46;;;;;;;2.08;0.43;;;15.60;99.90;;;;;;5096587;28;20067;-77
2024/04/04 11:36:11;;;;;;;3.95;0.30;;;15.60;99.90;;;;;;5096308;28;20098;-77
2024/04/04 11:38:38;;;;;;;5.30;0.20;;;15.40;99.90;;;;;;5098715;28;20107;-77
2024/04/04 11:41:04;;;;;;;2.95;0.40;;;15.30;99.90;;;;;;5096194;28;20020;-78
2024/04/04 11:43:31;;;;;;;10.02;0.22;;;15.30;99.90;;;;;;5098480;28;20023;-76
2024/04/04 11:45:57;;;;;;;4.20;0.10;;;15.60;99.90;;;;;;5096163;28;20024;-78
2024/04/04 11:48:23;;;;;;;8.27;0.00;;;15.90;99.90;;;;;;5098109;28;20024;-78
2024/04/04 11:50:49;;;;;;;4.30;0.00;;;16.00;99.90;;;;;;5095793;28;20020;-78
2024/04/04 11:53:15;;;;;;;6.95;0.43;;;15.90;99.90;;;;;;5096160;28;20024;-78
2024/04/04 11:55:42;;;;;;;11.93;0.80;;;15.40;99.90;;;;;;5096579;28;20020;-78
2024/04/04 11:58:09;;;;;;;4.90;0.25;;;15.30;99.90;;;;;;5094894;28;20411;-77
2024/04/04 12:00:35;;;;;;;7.47;0.90;;;15.10;99.90;;;;;;5094742;28;20014;-78
2024/04/04 12:03:03;;;;;;;6.05;0.65;;;15.10;99.90;;;;;;5097553;28;20099;-79
2024/04/04 12:05:31;;;;;;;6.05;0.00;;;14.80;99.90;;;;;;5102227;28;20020;-79
2024/04/04 12:07:56;;;;;;;4.38;0.90;;;14.80;99.90;;;;;;5101348;28;20110;-79
2024/04/04 12:10:22;;;;;;;8.30;0.25;;;15.10;99.90;;;;;;5101514;28;20062;-79
2024/04/04 12:12:48;;;;;;;10.82;0.32;;;15.30;99.90;;;;;;5103027;28;20020;-79
2024/04/04 12:15:13;;;;;;;7.05;0.35;;;15.30;99.90;;;;;;5101230;28;20020;-79
2024/04/04 12:17:39;;;;;;;5.40;0.10;;;15.70;99.90;;;;;;5101170;28;20475;-79
2024/04/04 12:20:09;;;;;;;11.25;1.08;;;15.90;99.90;;;;;;5102170;28;20062;-79
2024/04/04 12:22:38;;;;;;;11.13;0.32;;;15.90;99.90;;;;;;5099259;28;20097;-78
2024/04/04 12:25:04;;;;;;;10.60;0.52;;;15.90;99.90;;;;;;5096514;28;20528;-78
2024/04/04 12:27:31;;;;;;;2.97;0.30;;;16.00;99.90;;;;;;5095371;28;20047;-78
2024/04/04 12:29:57;;;;;;;4.47;0.85;;;16.20;99.90;;;;;;5097982;28;20536;-78
2024/04/04 12:32:22;;;;;;;7.97;0.28;;;16.00;99.90;;;;;;5097971;28;20036;-78
2024/04/04 12:34:48;;;;;;;6.45;0.75;;;15.70;99.90;;;;;;5098415;28;20020;-78
2024/04/04 12:37:14;;;;;;;8.13;0.10;;;15.70;99.90;;;;;;5099873;28;20035;-79
2024/04/04 12:39:39;;;;;;;7.32;0.25;;;15.70;99.90;;;;;;5099114;28;20021;-79
2024/04/04 12:42:05;;;;;;;12.23;0.90;;;16.00;99.90;;;;;;5098190;28;20028;-79
2024/04/04 12:44:31;;;;;;;10.98;0.32;;;16.30;99.90;;;;;;5098619;28;20012;-79
2024/04/04 12:46:59;;;;;;;13.43;0.35;;;16.90;99.90;;;;;;5097455;28;20053;-79
2024/04/04 12:49:25;;;;;;;5.00;0.33;;;16.90;99.90;;;;;;5096342;28;20380;-79
2024/04/04 12:51:50;;;;;;;5.38;0.20;;;17.00;99.90;;;;;;5096345;28;20276;-79
2024/04/04 12:54:16;;;;;;;11.70;1.48;;;17.30;99.90;;;;;;5096486;28;20059;-79